sensor_id;sensor_type;location;lat;lon;timestamp;P1;durP1;ratioP1;P2;durP2;ratioP2
52898;SDS011;38763;53.096;6.062;2022-09-09T00:00:22;17.73;;;8.25;;
52898;SDS011;38763;53.096;6.062;2022-09-09T00:05:38;13.95;;;7.88;;
52898;SDS011;38763;53.096;6.062;2022-09-09T00:08:22;19.20;;;8.45;;
52898;SDS011;38763;53.096;6.062;2022-09-09T00:10:58;18.75;;;8.82;;
52898;SDS011;38763;53.096;6.062;2022-09-09T00:13:32;15.23;;;8.82;;
52898;SDS011;38763;53.096;6.062;2022-09-09T00:16:12;13.95;;;8.88;;
52898;SDS011;38763;53.096;6.062;2022-09-09T00:21:37;14.88;;;8.73;;
52898;SDS011;38763;53.096;6.062;2022-09-09T00:24:09;14.93;;;8.85;;
52898;SDS011;38763;53.096;6.062;2022-09-09T00:26:51;18.60;;;9.68;;
52898;SDS011;38763;53.096;6.062;2022-09-09T00:32:12;17.17;;;8.82;;
52898;SDS011;38763;53.096;6.062;2022-09-09T00:35:02;16.20;;;9.13;;
52898;SDS011;38763;53.096;6.062;2022-09-09T00:37:27;16.27;;;8.73;;
52898;SDS011;38763;53.096;6.062;2022-09-09T00:39:57;13.50;;;8.63;;
52898;SDS011;38763;53.096;6.062;2022-09-09T00:42:41;13.95;;;8.88;;
52898;SDS011;38763;53.096;6.062;2022-09-09T00:48:01;13.77;;;8.43;;
52898;SDS011;38763;53.096;6.062;2022-09-09T00:55:54;16.58;;;8.13;;
52898;SDS011;38763;53.096;6.062;2022-09-09T00:58:25;17.30;;;8.40;;
52898;SDS011;38763;53.096;6.062;2022-09-09T01:00:54;19.48;;;8.13;;
52898;SDS011;38763;53.096;6.062;2022-09-09T01:03:46;15.75;;;8.25;;
52898;SDS011;38763;53.096;6.062;2022-09-09T01:14:36;14.98;;;7.80;;
52898;SDS011;38763;53.096;6.062;2022-09-09T01:17:15;16.70;;;8.63;;
52898;SDS011;38763;53.096;6.062;2022-09-09T01:22:22;16.40;;;8.60;;
52898;SDS011;38763;53.096;6.062;2022-09-09T01:25:15;14.48;;;7.82;;
52898;SDS011;38763;53.096;6.062;2022-09-09T01:28:03;14.43;;;7.50;;
52898;SDS011;38763;53.096;6.062;2022-09-09T01:30:33;15.57;;;8.27;;
52898;SDS011;38763;53.096;6.062;2022-09-09T01:33:00;15.88;;;7.90;;
52898;SDS011;38763;53.096;6.062;2022-09-09T01:38:09;13.38;;;7.20;;
52898;SDS011;38763;53.096;6.062;2022-09-09T01:40:36;15.70;;;7.65;;
52898;SDS011;38763;53.096;6.062;2022-09-09T01:43:02;16.33;;;7.32;;
52898;SDS011;38763;53.096;6.062;2022-09-09T01:45:28;11.85;;;7.57;;
52898;SDS011;38763;53.096;6.062;2022-09-09T01:47:55;11.38;;;6.78;;
52898;SDS011;38763;53.096;6.062;2022-09-09T01:50:21;12.93;;;6.75;;
52898;SDS011;38763;53.096;6.062;2022-09-09T01:52:49;12.43;;;7.00;;
52898;SDS011;38763;53.096;6.062;2022-09-09T01:55:18;13.05;;;7.30;;
52898;SDS011;38763;53.096;6.062;2022-09-09T02:00:27;14.85;;;7.82;;
52898;SDS011;38763;53.096;6.062;2022-09-09T02:08:11;13.98;;;7.70;;
52898;SDS011;38763;53.096;6.062;2022-09-09T02:13:22;16.42;;;7.82;;
52898;SDS011;38763;53.096;6.062;2022-09-09T02:18:34;13.88;;;7.95;;
52898;SDS011;38763;53.096;6.062;2022-09-09T02:21:20;17.60;;;8.25;;
52898;SDS011;38763;53.096;6.062;2022-09-09T02:23:48;14.02;;;7.93;;
52898;SDS011;38763;53.096;6.062;2022-09-09T02:26:17;14.50;;;8.15;;
52898;SDS011;38763;53.096;6.062;2022-09-09T02:28:49;16.92;;;8.40;;
52898;SDS011;38763;53.096;6.062;2022-09-09T02:31:17;15.43;;;8.52;;
52898;SDS011;38763;53.096;6.062;2022-09-09T02:33:46;16.65;;;8.40;;
52898;SDS011;38763;53.096;6.062;2022-09-09T02:36:17;15.63;;;9.27;;
52898;SDS011;38763;53.096;6.062;2022-09-09T02:38:46;14.70;;;7.97;;
52898;SDS011;38763;53.096;6.062;2022-09-09T02:41:22;14.47;;;8.67;;
52898;SDS011;38763;53.096;6.062;2022-09-09T02:43:56;16.60;;;8.77;;
52898;SDS011;38763;53.096;6.062;2022-09-09T02:49:09;15.05;;;8.88;;
52898;SDS011;38763;53.096;6.062;2022-09-09T02:52:02;16.10;;;8.82;;
52898;SDS011;38763;53.096;6.062;2022-09-09T02:54:32;15.88;;;8.73;;
52898;SDS011;38763;53.096;6.062;2022-09-09T02:57:11;15.60;;;9.27;;
52898;SDS011;38763;53.096;6.062;2022-09-09T02:59:43;17.10;;;9.38;;
52898;SDS011;38763;53.096;6.062;2022-09-09T03:02:09;17.60;;;8.90;;
52898;SDS011;38763;53.096;6.062;2022-09-09T03:04:36;18.55;;;9.60;;
52898;SDS011;38763;53.096;6.062;2022-09-09T03:07:02;21.98;;;10.15;;
52898;SDS011;38763;53.096;6.062;2022-09-09T03:09:28;16.45;;;9.02;;
52898;SDS011;38763;53.096;6.062;2022-09-09T03:11:54;17.95;;;9.77;;
52898;SDS011;38763;53.096;6.062;2022-09-09T03:14:20;20.20;;;10.65;;
52898;SDS011;38763;53.096;6.062;2022-09-09T03:16:49;19.27;;;10.43;;
52898;SDS011;38763;53.096;6.062;2022-09-09T03:19:18;18.30;;;9.93;;
52898;SDS011;38763;53.096;6.062;2022-09-09T03:21:45;18.08;;;9.48;;
52898;SDS011;38763;53.096;6.062;2022-09-09T03:24:12;16.48;;;9.70;;
52898;SDS011;38763;53.096;6.062;2022-09-09T03:26:39;17.83;;;9.90;;
52898;SDS011;38763;53.096;6.062;2022-09-09T03:29:05;18.88;;;9.70;;
52898;SDS011;38763;53.096;6.062;2022-09-09T03:31:32;18.20;;;9.75;;
52898;SDS011;38763;53.096;6.062;2022-09-09T03:33:58;19.00;;;10.68;;
52898;SDS011;38763;53.096;6.062;2022-09-09T03:36:25;16.60;;;9.73;;
52898;SDS011;38763;53.096;6.062;2022-09-09T03:38:52;20.10;;;10.27;;
52898;SDS011;38763;53.096;6.062;2022-09-09T03:41:19;17.08;;;10.07;;
52898;SDS011;38763;53.096;6.062;2022-09-09T03:43:46;19.80;;;11.35;;
52898;SDS011;38763;53.096;6.062;2022-09-09T03:46:11;18.48;;;10.35;;
52898;SDS011;38763;53.096;6.062;2022-09-09T03:48:37;21.95;;;10.98;;
52898;SDS011;38763;53.096;6.062;2022-09-09T03:51:02;24.02;;;11.52;;
52898;SDS011;38763;53.096;6.062;2022-09-09T03:53:28;17.92;;;10.98;;
52898;SDS011;38763;53.096;6.062;2022-09-09T03:55:55;17.55;;;10.40;;
52898;SDS011;38763;53.096;6.062;2022-09-09T03:58:25;19.98;;;10.82;;
52898;SDS011;38763;53.096;6.062;2022-09-09T04:00:55;21.20;;;11.05;;
52898;SDS011;38763;53.096;6.062;2022-09-09T04:03:31;18.58;;;10.25;;
52898;SDS011;38763;53.096;6.062;2022-09-09T04:05:58;18.83;;;11.02;;
52898;SDS011;38763;53.096;6.062;2022-09-09T04:08:25;20.08;;;11.05;;
52898;SDS011;38763;53.096;6.062;2022-09-09T04:10:51;18.63;;;10.73;;
52898;SDS011;38763;53.096;6.062;2022-09-09T04:13:18;21.80;;;11.30;;
52898;SDS011;38763;53.096;6.062;2022-09-09T04:15:50;22.95;;;10.65;;
52898;SDS011;38763;53.096;6.062;2022-09-09T04:18:17;21.50;;;11.60;;
52898;SDS011;38763;53.096;6.062;2022-09-09T04:20:42;21.45;;;11.52;;
52898;SDS011;38763;53.096;6.062;2022-09-09T04:23:10;23.23;;;11.65;;
52898;SDS011;38763;53.096;6.062;2022-09-09T04:25:36;20.83;;;11.82;;
52898;SDS011;38763;53.096;6.062;2022-09-09T04:28:02;24.58;;;11.90;;
52898;SDS011;38763;53.096;6.062;2022-09-09T04:30:28;24.45;;;11.65;;
52898;SDS011;38763;53.096;6.062;2022-09-09T04:32:54;19.77;;;11.65;;
52898;SDS011;38763;53.096;6.062;2022-09-09T04:35:19;23.85;;;10.93;;
52898;SDS011;38763;53.096;6.062;2022-09-09T04:37:45;21.85;;;11.48;;
52898;SDS011;38763;53.096;6.062;2022-09-09T04:40:11;18.52;;;10.75;;
52898;SDS011;38763;53.096;6.062;2022-09-09T04:42:37;18.50;;;10.02;;
52898;SDS011;38763;53.096;6.062;2022-09-09T04:45:03;18.90;;;10.65;;
52898;SDS011;38763;53.096;6.062;2022-09-09T04:47:30;23.48;;;11.27;;
52898;SDS011;38763;53.096;6.062;2022-09-09T04:49:55;21.55;;;11.30;;
52898;SDS011;38763;53.096;6.062;2022-09-09T04:52:21;20.75;;;11.13;;
52898;SDS011;38763;53.096;6.062;2022-09-09T04:54:47;24.88;;;10.75;;
52898;SDS011;38763;53.096;6.062;2022-09-09T04:57:13;19.35;;;11.35;;
52898;SDS011;38763;53.096;6.062;2022-09-09T04:59:39;20.80;;;12.20;;
52898;SDS011;38763;53.096;6.062;2022-09-09T05:02:04;21.60;;;11.68;;
52898;SDS011;38763;53.096;6.062;2022-09-09T05:04:31;24.40;;;12.85;;
52898;SDS011;38763;53.096;6.062;2022-09-09T05:06:56;25.38;;;12.20;;
52898;SDS011;38763;53.096;6.062;2022-09-09T05:09:22;22.45;;;12.27;;
52898;SDS011;38763;53.096;6.062;2022-09-09T05:11:47;24.10;;;13.48;;
52898;SDS011;38763;53.096;6.062;2022-09-09T05:14:13;23.98;;;13.23;;
52898;SDS011;38763;53.096;6.062;2022-09-09T05:16:40;25.77;;;12.98;;
52898;SDS011;38763;53.096;6.062;2022-09-09T05:19:05;25.83;;;12.70;;
52898;SDS011;38763;53.096;6.062;2022-09-09T05:21:33;22.38;;;13.70;;
52898;SDS011;38763;53.096;6.062;2022-09-09T05:23:59;25.10;;;13.77;;
52898;SDS011;38763;53.096;6.062;2022-09-09T05:26:25;25.27;;;13.52;;
52898;SDS011;38763;53.096;6.062;2022-09-09T05:28:51;22.40;;;13.27;;
52898;SDS011;38763;53.096;6.062;2022-09-09T05:31:18;27.42;;;14.25;;
52898;SDS011;38763;53.096;6.062;2022-09-09T05:33:44;28.42;;;14.13;;
52898;SDS011;38763;53.096;6.062;2022-09-09T05:36:15;26.02;;;13.88;;
52898;SDS011;38763;53.096;6.062;2022-09-09T05:38:42;25.58;;;13.25;;
52898;SDS011;38763;53.096;6.062;2022-09-09T05:41:09;26.02;;;14.35;;
52898;SDS011;38763;53.096;6.062;2022-09-09T05:43:36;23.90;;;13.63;;
52898;SDS011;38763;53.096;6.062;2022-09-09T05:46:04;27.67;;;13.65;;
52898;SDS011;38763;53.096;6.062;2022-09-09T05:48:31;26.75;;;13.60;;
52898;SDS011;38763;53.096;6.062;2022-09-09T05:50:59;21.45;;;11.98;;
52898;SDS011;38763;53.096;6.062;2022-09-09T05:53:25;21.67;;;12.30;;
52898;SDS011;38763;53.096;6.062;2022-09-09T05:56:25;23.48;;;12.25;;
52898;SDS011;38763;53.096;6.062;2022-09-09T05:58:45;22.77;;;11.57;;
52898;SDS011;38763;53.096;6.062;2022-09-09T06:01:17;21.65;;;11.27;;
52898;SDS011;38763;53.096;6.062;2022-09-09T06:03:45;21.55;;;11.55;;
52898;SDS011;38763;53.096;6.062;2022-09-09T06:06:13;17.88;;;10.00;;
52898;SDS011;38763;53.096;6.062;2022-09-09T06:08:42;17.27;;;10.70;;
52898;SDS011;38763;53.096;6.062;2022-09-09T06:11:22;17.85;;;10.40;;
52898;SDS011;38763;53.096;6.062;2022-09-09T06:13:52;20.80;;;11.40;;
52898;SDS011;38763;53.096;6.062;2022-09-09T06:16:20;18.13;;;10.38;;
52898;SDS011;38763;53.096;6.062;2022-09-09T06:18:48;18.45;;;9.82;;
52898;SDS011;38763;53.096;6.062;2022-09-09T06:21:16;23.52;;;11.10;;
52898;SDS011;38763;53.096;6.062;2022-09-09T06:23:43;19.98;;;11.18;;
52898;SDS011;38763;53.096;6.062;2022-09-09T06:26:11;20.67;;;11.77;;
52898;SDS011;38763;53.096;6.062;2022-09-09T06:28:44;16.52;;;10.60;;
52898;SDS011;38763;53.096;6.062;2022-09-09T06:31:11;18.98;;;10.38;;
52898;SDS011;38763;53.096;6.062;2022-09-09T06:33:39;22.20;;;11.50;;
52898;SDS011;38763;53.096;6.062;2022-09-09T06:36:13;22.85;;;12.25;;
52898;SDS011;38763;53.096;6.062;2022-09-09T06:38:41;22.55;;;10.95;;
52898;SDS011;38763;53.096;6.062;2022-09-09T06:41:08;19.08;;;11.10;;
52898;SDS011;38763;53.096;6.062;2022-09-09T06:43:35;19.30;;;11.25;;
52898;SDS011;38763;53.096;6.062;2022-09-09T06:46:03;18.73;;;10.13;;
52898;SDS011;38763;53.096;6.062;2022-09-09T06:48:28;18.80;;;10.63;;
52898;SDS011;38763;53.096;6.062;2022-09-09T06:53:31;16.67;;;9.95;;
52898;SDS011;38763;53.096;6.062;2022-09-09T06:56:01;19.30;;;10.40;;
52898;SDS011;38763;53.096;6.062;2022-09-09T06:58:27;17.17;;;9.43;;
52898;SDS011;38763;53.096;6.062;2022-09-09T07:01:01;16.20;;;9.95;;
52898;SDS011;38763;53.096;6.062;2022-09-09T07:03:28;17.35;;;9.60;;
52898;SDS011;38763;53.096;6.062;2022-09-09T07:05:54;18.67;;;9.88;;
52898;SDS011;38763;53.096;6.062;2022-09-09T07:08:21;15.77;;;9.15;;
52898;SDS011;38763;53.096;6.062;2022-09-09T07:10:47;16.23;;;8.32;;
52898;SDS011;38763;53.096;6.062;2022-09-09T07:13:13;13.85;;;8.85;;
52898;SDS011;38763;53.096;6.062;2022-09-09T07:15:40;17.38;;;9.10;;
52898;SDS011;38763;53.096;6.062;2022-09-09T07:18:06;17.55;;;8.57;;
52898;SDS011;38763;53.096;6.062;2022-09-09T07:20:34;13.02;;;8.20;;
52898;SDS011;38763;53.096;6.062;2022-09-09T07:22:59;13.00;;;7.65;;
52898;SDS011;38763;53.096;6.062;2022-09-09T07:25:25;18.13;;;7.80;;
52898;SDS011;38763;53.096;6.062;2022-09-09T07:27:53;15.88;;;7.93;;
52898;SDS011;38763;53.096;6.062;2022-09-09T07:30:19;12.68;;;6.97;;
52898;SDS011;38763;53.096;6.062;2022-09-09T07:32:46;12.02;;;6.90;;
52898;SDS011;38763;53.096;6.062;2022-09-09T07:35:11;15.27;;;8.07;;
52898;SDS011;38763;53.096;6.062;2022-09-09T07:37:37;14.02;;;7.07;;
52898;SDS011;38763;53.096;6.062;2022-09-09T07:40:03;11.00;;;6.72;;
52898;SDS011;38763;53.096;6.062;2022-09-09T07:42:30;11.25;;;6.70;;
52898;SDS011;38763;53.096;6.062;2022-09-09T07:44:56;14.70;;;6.70;;
52898;SDS011;38763;53.096;6.062;2022-09-09T07:47:21;13.35;;;6.95;;
52898;SDS011;38763;53.096;6.062;2022-09-09T07:49:49;10.02;;;6.30;;
52898;SDS011;38763;53.096;6.062;2022-09-09T07:52:15;9.45;;;5.70;;
52898;SDS011;38763;53.096;6.062;2022-09-09T07:54:41;10.82;;;6.25;;
52898;SDS011;38763;53.096;6.062;2022-09-09T07:57:07;10.00;;;5.50;;
52898;SDS011;38763;53.096;6.062;2022-09-09T07:59:33;15.32;;;6.35;;
52898;SDS011;38763;53.096;6.062;2022-09-09T08:01:58;12.98;;;6.07;;
52898;SDS011;38763;53.096;6.062;2022-09-09T08:04:25;10.68;;;5.60;;
52898;SDS011;38763;53.096;6.062;2022-09-09T08:06:52;8.95;;;5.53;;
52898;SDS011;38763;53.096;6.062;2022-09-09T08:09:20;9.18;;;5.28;;
52898;SDS011;38763;53.096;6.062;2022-09-09T08:11:49;9.75;;;5.40;;
52898;SDS011;38763;53.096;6.062;2022-09-09T08:14:16;10.45;;;5.50;;
52898;SDS011;38763;53.096;6.062;2022-09-09T08:16:43;10.40;;;6.00;;
52898;SDS011;38763;53.096;6.062;2022-09-09T08:19:11;9.60;;;5.00;;
52898;SDS011;38763;53.096;6.062;2022-09-09T08:21:38;11.00;;;5.25;;
52898;SDS011;38763;53.096;6.062;2022-09-09T08:24:05;11.27;;;5.72;;
52898;SDS011;38763;53.096;6.062;2022-09-09T08:26:35;13.45;;;5.45;;
52898;SDS011;38763;53.096;6.062;2022-09-09T08:29:07;11.98;;;5.30;;
52898;SDS011;38763;53.096;6.062;2022-09-09T08:31:39;10.70;;;6.43;;
52898;SDS011;38763;53.096;6.062;2022-09-09T08:34:15;9.23;;;5.43;;
52898;SDS011;38763;53.096;6.062;2022-09-09T08:36:42;9.93;;;5.78;;
52898;SDS011;38763;53.096;6.062;2022-09-09T08:39:09;12.45;;;6.10;;
52898;SDS011;38763;53.096;6.062;2022-09-09T08:47:05;11.15;;;5.30;;
52898;SDS011;38763;53.096;6.062;2022-09-09T08:52:28;8.52;;;4.57;;
52898;SDS011;38763;53.096;6.062;2022-09-09T08:54:57;10.23;;;4.72;;
52898;SDS011;38763;53.096;6.062;2022-09-09T08:57:40;12.63;;;4.30;;
52898;SDS011;38763;53.096;6.062;2022-09-09T09:00:07;10.93;;;4.18;;
52898;SDS011;38763;53.096;6.062;2022-09-09T09:02:51;9.77;;;3.72;;
52898;SDS011;38763;53.096;6.062;2022-09-09T09:05:23;9.32;;;4.25;;
52898;SDS011;38763;53.096;6.062;2022-09-09T09:10:46;9.68;;;3.75;;
52898;SDS011;38763;53.096;6.062;2022-09-09T09:13:18;9.50;;;4.00;;
52898;SDS011;38763;53.096;6.062;2022-09-09T09:15:48;12.38;;;4.13;;
52898;SDS011;38763;53.096;6.062;2022-09-09T09:18:21;8.82;;;3.78;;
52898;SDS011;38763;53.096;6.062;2022-09-09T09:20:54;10.63;;;3.45;;
52898;SDS011;38763;53.096;6.062;2022-09-09T09:23:25;7.85;;;3.58;;
52898;SDS011;38763;53.096;6.062;2022-09-09T09:25:57;8.88;;;3.50;;
52898;SDS011;38763;53.096;6.062;2022-09-09T09:28:26;10.82;;;3.60;;
52898;SDS011;38763;53.096;6.062;2022-09-09T09:33:32;10.25;;;3.38;;
52898;SDS011;38763;53.096;6.062;2022-09-09T09:36:06;8.52;;;3.13;;
52898;SDS011;38763;53.096;6.062;2022-09-09T09:38:35;10.27;;;3.22;;
52898;SDS011;38763;53.096;6.062;2022-09-09T09:41:02;7.07;;;2.80;;
52898;SDS011;38763;53.096;6.062;2022-09-09T09:43:32;6.28;;;2.78;;
52898;SDS011;38763;53.096;6.062;2022-09-09T09:45:59;9.02;;;3.03;;
52898;SDS011;38763;53.096;6.062;2022-09-09T09:48:25;7.30;;;2.80;;
52898;SDS011;38763;53.096;6.062;2022-09-09T09:50:54;11.32;;;3.08;;
52898;SDS011;38763;53.096;6.062;2022-09-09T09:53:29;11.57;;;2.92;;
52898;SDS011;38763;53.096;6.062;2022-09-09T09:56:00;9.02;;;2.53;;
52898;SDS011;38763;53.096;6.062;2022-09-09T09:58:32;8.90;;;2.42;;
52898;SDS011;38763;53.096;6.062;2022-09-09T10:01:02;7.10;;;2.40;;
52898;SDS011;38763;53.096;6.062;2022-09-09T10:03:31;5.93;;;2.33;;
52898;SDS011;38763;53.096;6.062;2022-09-09T10:06:03;7.68;;;2.25;;
52898;SDS011;38763;53.096;6.062;2022-09-09T10:08:29;8.93;;;2.75;;
52898;SDS011;38763;53.096;6.062;2022-09-09T10:13:42;11.52;;;2.42;;
52898;SDS011;38763;53.096;6.062;2022-09-09T10:19:15;10.15;;;2.30;;
52898;SDS011;38763;53.096;6.062;2022-09-09T10:24:36;9.68;;;2.53;;
52898;SDS011;38763;53.096;6.062;2022-09-09T10:38:16;9.15;;;2.47;;
52898;SDS011;38763;53.096;6.062;2022-09-09T10:57:51;11.20;;;2.10;;
52898;SDS011;38763;53.096;6.062;2022-09-09T11:00:22;9.85;;;1.70;;
52898;SDS011;38763;53.096;6.062;2022-09-09T11:02:50;6.97;;;1.60;;
52898;SDS011;38763;53.096;6.062;2022-09-09T11:05:31;7.20;;;1.60;;
52898;SDS011;38763;53.096;6.062;2022-09-09T11:08:15;5.60;;;1.52;;
52898;SDS011;38763;53.096;6.062;2022-09-09T11:10:53;5.57;;;1.70;;
52898;SDS011;38763;53.096;6.062;2022-09-09T11:13:49;7.82;;;1.40;;
52898;SDS011;38763;53.096;6.062;2022-09-09T11:18:48;6.25;;;1.35;;
52898;SDS011;38763;53.096;6.062;2022-09-09T11:21:25;6.00;;;1.63;;
52898;SDS011;38763;53.096;6.062;2022-09-09T11:24:05;10.15;;;1.80;;
52898;SDS011;38763;53.096;6.062;2022-09-09T11:26:41;8.85;;;1.85;;
52898;SDS011;38763;53.096;6.062;2022-09-09T11:30:11;6.97;;;1.80;;
52898;SDS011;38763;53.096;6.062;2022-09-09T11:33:03;8.50;;;1.70;;
52898;SDS011;38763;53.096;6.062;2022-09-09T11:38:45;6.53;;;1.70;;
52898;SDS011;38763;53.096;6.062;2022-09-09T11:41:16;7.35;;;1.70;;
52898;SDS011;38763;53.096;6.062;2022-09-09T11:43:43;6.03;;;1.75;;
52898;SDS011;38763;53.096;6.062;2022-09-09T11:46:12;8.10;;;1.88;;
52898;SDS011;38763;53.096;6.062;2022-09-09T11:48:43;6.60;;;1.60;;
52898;SDS011;38763;53.096;6.062;2022-09-09T11:53:49;6.10;;;1.77;;
52898;SDS011;38763;53.096;6.062;2022-09-09T11:56:29;8.90;;;1.73;;
52898;SDS011;38763;53.096;6.062;2022-09-09T11:59:04;4.68;;;1.88;;
52898;SDS011;38763;53.096;6.062;2022-09-09T12:01:38;7.43;;;2.00;;
52898;SDS011;38763;53.096;6.062;2022-09-09T12:06:44;7.63;;;1.83;;
52898;SDS011;38763;53.096;6.062;2022-09-09T12:17:36;8.05;;;2.00;;
52898;SDS011;38763;53.096;6.062;2022-09-09T12:20:12;10.88;;;2.30;;
52898;SDS011;38763;53.096;6.062;2022-09-09T12:23:06;7.10;;;2.22;;
52898;SDS011;38763;53.096;6.062;2022-09-09T12:28:42;8.68;;;2.20;;
52898;SDS011;38763;53.096;6.062;2022-09-09T12:34:02;13.77;;;2.97;;
52898;SDS011;38763;53.096;6.062;2022-09-09T12:36:36;7.03;;;2.05;;
52898;SDS011;38763;53.096;6.062;2022-09-09T12:39:22;7.63;;;2.00;;
52898;SDS011;38763;53.096;6.062;2022-09-09T12:41:54;10.23;;;2.40;;
52898;SDS011;38763;53.096;6.062;2022-09-09T12:44:22;6.55;;;1.83;;
52898;SDS011;38763;53.096;6.062;2022-09-09T12:46:48;6.57;;;1.63;;
52898;SDS011;38763;53.096;6.062;2022-09-09T12:49:35;9.80;;;2.05;;
52898;SDS011;38763;53.096;6.062;2022-09-09T12:52:13;9.02;;;1.92;;
52898;SDS011;38763;53.096;6.062;2022-09-09T12:54:44;8.55;;;1.60;;
52898;SDS011;38763;53.096;6.062;2022-09-09T12:57:16;6.32;;;1.45;;
52898;SDS011;38763;53.096;6.062;2022-09-09T12:59:43;4.93;;;1.50;;
52898;SDS011;38763;53.096;6.062;2022-09-09T13:02:23;6.32;;;1.95;;
52898;SDS011;38763;53.096;6.062;2022-09-09T13:04:51;7.63;;;1.63;;
52898;SDS011;38763;53.096;6.062;2022-09-09T13:07:18;9.50;;;1.90;;
52898;SDS011;38763;53.096;6.062;2022-09-09T13:09:45;6.65;;;1.70;;
52898;SDS011;38763;53.096;6.062;2022-09-09T13:12:16;8.65;;;1.75;;
52898;SDS011;38763;53.096;6.062;2022-09-09T13:14:46;6.15;;;2.00;;
52898;SDS011;38763;53.096;6.062;2022-09-09T13:17:23;9.18;;;2.10;;
52898;SDS011;38763;53.096;6.062;2022-09-09T13:19:50;7.05;;;1.77;;
52898;SDS011;38763;53.096;6.062;2022-09-09T13:24:58;6.87;;;2.30;;
52898;SDS011;38763;53.096;6.062;2022-09-09T13:33:02;7.80;;;2.28;;
52898;SDS011;38763;53.096;6.062;2022-09-09T13:35:31;7.97;;;2.17;;
52898;SDS011;38763;53.096;6.062;2022-09-09T13:37:57;8.68;;;2.50;;
52898;SDS011;38763;53.096;6.062;2022-09-09T13:40:24;8.52;;;2.65;;
52898;SDS011;38763;53.096;6.062;2022-09-09T13:42:56;9.95;;;2.55;;
52898;SDS011;38763;53.096;6.062;2022-09-09T13:45:24;6.68;;;2.40;;
52898;SDS011;38763;53.096;6.062;2022-09-09T13:47:54;6.85;;;2.00;;
52898;SDS011;38763;53.096;6.062;2022-09-09T13:50:22;4.88;;;1.80;;
52898;SDS011;38763;53.096;6.062;2022-09-09T13:52:48;8.13;;;1.73;;
52898;SDS011;38763;53.096;6.062;2022-09-09T13:55:17;5.50;;;1.77;;
52898;SDS011;38763;53.096;6.062;2022-09-09T13:57:53;5.20;;;1.50;;
52898;SDS011;38763;53.096;6.062;2022-09-09T14:00:23;5.47;;;1.60;;
52898;SDS011;38763;53.096;6.062;2022-09-09T14:02:49;6.20;;;1.60;;
52898;SDS011;38763;53.096;6.062;2022-09-09T14:05:15;4.45;;;1.50;;
52898;SDS011;38763;53.096;6.062;2022-09-09T14:07:44;7.85;;;1.73;;
52898;SDS011;38763;53.096;6.062;2022-09-09T14:10:11;4.25;;;1.30;;
52898;SDS011;38763;53.096;6.062;2022-09-09T14:12:37;3.58;;;1.30;;
52898;SDS011;38763;53.096;6.062;2022-09-09T14:15:04;6.32;;;1.80;;
52898;SDS011;38763;53.096;6.062;2022-09-09T14:17:31;6.15;;;1.73;;
52898;SDS011;38763;53.096;6.062;2022-09-09T14:19:57;5.85;;;1.95;;
52898;SDS011;38763;53.096;6.062;2022-09-09T14:22:23;3.78;;;1.27;;
52898;SDS011;38763;53.096;6.062;2022-09-09T14:24:50;4.35;;;1.10;;
52898;SDS011;38763;53.096;6.062;2022-09-09T14:27:16;4.35;;;1.23;;
52898;SDS011;38763;53.096;6.062;2022-09-09T14:29:41;4.40;;;1.50;;
52898;SDS011;38763;53.096;6.062;2022-09-09T14:32:09;4.50;;;1.25;;
52898;SDS011;38763;53.096;6.062;2022-09-09T14:34:35;7.00;;;1.30;;
52898;SDS011;38763;53.096;6.062;2022-09-09T14:37:00;6.60;;;1.38;;
52898;SDS011;38763;53.096;6.062;2022-09-09T14:39:26;6.47;;;1.10;;
52898;SDS011;38763;53.096;6.062;2022-09-09T14:41:51;3.40;;;1.38;;
52898;SDS011;38763;53.096;6.062;2022-09-09T14:44:17;5.85;;;1.45;;
52898;SDS011;38763;53.096;6.062;2022-09-09T14:46:43;7.20;;;1.67;;
52898;SDS011;38763;53.096;6.062;2022-09-09T14:49:09;6.70;;;1.80;;
52898;SDS011;38763;53.096;6.062;2022-09-09T14:51:38;4.10;;;1.60;;
52898;SDS011;38763;53.096;6.062;2022-09-09T14:54:04;7.60;;;1.60;;
52898;SDS011;38763;53.096;6.062;2022-09-09T14:56:31;3.92;;;1.50;;
52898;SDS011;38763;53.096;6.062;2022-09-09T14:58:59;5.72;;;1.75;;
52898;SDS011;38763;53.096;6.062;2022-09-09T15:01:26;6.03;;;1.70;;
52898;SDS011;38763;53.096;6.062;2022-09-09T15:03:56;6.35;;;1.70;;
52898;SDS011;38763;53.096;6.062;2022-09-09T15:06:24;6.57;;;1.67;;
52898;SDS011;38763;53.096;6.062;2022-09-09T15:08:51;3.28;;;1.30;;
52898;SDS011;38763;53.096;6.062;2022-09-09T15:11:18;3.53;;;1.17;;
52898;SDS011;38763;53.096;6.062;2022-09-09T15:13:45;8.32;;;2.38;;
52898;SDS011;38763;53.096;6.062;2022-09-09T15:16:15;4.95;;;1.83;;
52898;SDS011;38763;53.096;6.062;2022-09-09T15:18:42;3.72;;;1.60;;
52898;SDS011;38763;53.096;6.062;2022-09-09T15:21:13;4.68;;;2.10;;
52898;SDS011;38763;53.096;6.062;2022-09-09T15:23:40;4.88;;;2.00;;
52898;SDS011;38763;53.096;6.062;2022-09-09T15:26:06;4.78;;;2.20;;
52898;SDS011;38763;53.096;6.062;2022-09-09T15:28:33;4.43;;;2.10;;
52898;SDS011;38763;53.096;6.062;2022-09-09T15:31:15;6.68;;;2.35;;
52898;SDS011;38763;53.096;6.062;2022-09-09T15:33:50;11.38;;;2.80;;
52898;SDS011;38763;53.096;6.062;2022-09-09T15:36:22;5.72;;;2.38;;
52898;SDS011;38763;53.096;6.062;2022-09-09T15:38:49;5.85;;;2.55;;
52898;SDS011;38763;53.096;6.062;2022-09-09T15:41:16;5.75;;;2.33;;
52898;SDS011;38763;53.096;6.062;2022-09-09T15:43:48;6.78;;;2.47;;
52898;SDS011;38763;53.096;6.062;2022-09-09T15:48:54;6.90;;;2.65;;
52898;SDS011;38763;53.096;6.062;2022-09-09T15:51:22;4.97;;;2.60;;
52898;SDS011;38763;53.096;6.062;2022-09-09T15:53:48;9.88;;;2.35;;
52898;SDS011;38763;53.096;6.062;2022-09-09T15:56:19;5.00;;;2.28;;
52898;SDS011;38763;53.096;6.062;2022-09-09T15:58:45;6.32;;;2.42;;
52898;SDS011;38763;53.096;6.062;2022-09-09T16:01:10;5.25;;;1.85;;
52898;SDS011;38763;53.096;6.062;2022-09-09T16:03:38;6.05;;;2.58;;
52898;SDS011;38763;53.096;6.062;2022-09-09T16:06:07;7.90;;;2.38;;
52898;SDS011;38763;53.096;6.062;2022-09-09T16:08:35;6.75;;;3.55;;
52898;SDS011;38763;53.096;6.062;2022-09-09T16:13:42;5.95;;;2.25;;
52898;SDS011;38763;53.096;6.062;2022-09-09T16:16:12;4.82;;;2.08;;
52898;SDS011;38763;53.096;6.062;2022-09-09T16:18:40;3.45;;;2.28;;
52898;SDS011;38763;53.096;6.062;2022-09-09T16:21:08;5.20;;;2.50;;
52898;SDS011;38763;53.096;6.062;2022-09-09T16:23:40;4.15;;;2.42;;
52898;SDS011;38763;53.096;6.062;2022-09-09T16:26:05;5.28;;;2.53;;
52898;SDS011;38763;53.096;6.062;2022-09-09T16:28:31;4.85;;;2.35;;
52898;SDS011;38763;53.096;6.062;2022-09-09T16:30:57;5.38;;;2.40;;
52898;SDS011;38763;53.096;6.062;2022-09-09T16:33:26;6.53;;;2.85;;
52898;SDS011;38763;53.096;6.062;2022-09-09T16:35:51;6.35;;;2.92;;
52898;SDS011;38763;53.096;6.062;2022-09-09T16:38:17;7.93;;;3.00;;
52898;SDS011;38763;53.096;6.062;2022-09-09T16:40:43;8.07;;;3.35;;
52898;SDS011;38763;53.096;6.062;2022-09-09T16:43:10;5.60;;;2.72;;
52898;SDS011;38763;53.096;6.062;2022-09-09T16:45:41;5.65;;;3.10;;
52898;SDS011;38763;53.096;6.062;2022-09-09T16:48:08;4.55;;;2.47;;
52898;SDS011;38763;53.096;6.062;2022-09-09T16:50:33;5.10;;;2.83;;
52898;SDS011;38763;53.096;6.062;2022-09-09T16:52:59;7.50;;;2.80;;
52898;SDS011;38763;53.096;6.062;2022-09-09T16:55:27;7.72;;;2.60;;
52898;SDS011;38763;53.096;6.062;2022-09-09T16:57:54;7.28;;;2.75;;
52898;SDS011;38763;53.096;6.062;2022-09-09T17:00:19;5.97;;;2.90;;
52898;SDS011;38763;53.096;6.062;2022-09-09T17:02:45;6.95;;;2.35;;
52898;SDS011;38763;53.096;6.062;2022-09-09T17:05:10;7.80;;;2.85;;
52898;SDS011;38763;53.096;6.062;2022-09-09T17:07:37;6.53;;;2.50;;
52898;SDS011;38763;53.096;6.062;2022-09-09T17:10:04;7.32;;;2.40;;